Alamo, GA (30411)

21:27 EST le 22 février 2017 (GMT -0500)
Mock Hill | | Change Station

Alt. 210 ft 32.17 °N, 82.59 °W | Updated 46 seconds ago

Pluie
Pluie
62.6 ° F
Paraît 62.6 ° F
N
0.0
Vent Variable Vent de Est

Aujourd'hui
Haut(e) -- | Bas -- ° F
--% Risque de précip.
Hier
Haut(e) -- | Bas -- ° F
Precip. -- pouce
Pression 29.83 pouce
Visibilité 10.0 Miles terrestres
Nuages Couvert 500 ft
Point de rosée 62 ° F
Humidité 99%
Précipitations 0.05 pouce
Profondeur de la couche neigeuse Non disponible.
7:06 AM 6:23 PM
Lune descendante, 13% visible
METAR KAZE 230215Z AUTO 07007G14KT 10SM OVC005 18/18 A2983 RMK AO2 T01810181
Pression 29.83 pouce
Visibilité 10.0 Miles terrestres
Nuages Couvert 500 ft
Point de rosée 62 ° F
Humidité 99%
Précipitations 0.05 pouce
Profondeur de la couche neigeuse Non disponible.
7:06 AM 6:23 PM
Lune descendante, 13% visible
METAR KAZE 230215Z AUTO 07007G14KT 10SM OVC005 18/18 A2983 RMK AO2 T01810181

Get Your Daily Forecast Email!

Thanks for signing up!

Be on the lookout for a verification email in your inbox.

You'll start receiving the daily forecast at 8 AM.

×

10-Day Weather Forecast

Almanac

Astronomie

Feb. 22, 2017 Lever Coucher
Temps réel
Crépuscule civil
Crépuscule nautique
Crépuscule astronomique
Lune
Durée de lumière visible
Longueur du jour
Tomorrow will be .
, % of the Moon is Illuminated

Extrêmes aujourd'hui

State Highs State Lows

Community

WunderPhotos

Upload Photos

1,962,540 Photos téléchargées !

WunderBlog® & News

Nearby

Qualité de l'air

  Qualité de l'air Indice de la qualité de l'air Polluant
Not available.

Épaisseur de neige

Station Depth Altitude

Activité sismique

Ville Distance Mag. Time & Date
Minimum magnitude displayed is 2.5.

Températures des eaux côtières

Lieu Température

Stations

Stations météo à proximité

Emplacement de la station Température Refroidissement éolien Point de rosée Humidité Vent Precip. Alt. Mise à jour Type
                   

Watches & Warnings

There are currently no watches in effect.